Time,TemperatureF,DewpointF,PressureIn,WindDirection,WindDirectionDegrees,WindSpeedMPH,WindSpeedGustMPH,Humidity,HourlyPrecipIn,Conditions,Clouds,dailyrainin,SolarRadiationWatts/m^2,SoftwareType,DateUTC
2013-02-24 00:02:00,37.4,36.4,29.76,North,9,7.0,12.0,96,0.00,,,0.19,0,Wunderground v.1.15,2013-02-24 05:02:00,
2013-02-24 00:12:00,37.4,36.4,29.76,North,355,7.0,12.0,96,0.00,,,0.19,0,Wunderground v.1.15,2013-02-24 05:12:00,
2013-02-24 00:22:00,37.3,36.3,29.76,NW,319,7.0,16.0,96,0.00,,,0.19,0,Wunderground v.1.15,2013-02-24 05:22:00,
2013-02-24 00:32:00,37.2,36.2,29.76,NNE,19,9.0,13.0,96,0.00,,,0.19,0,Wunderground v.1.15,2013-02-24 05:32:00,
2013-02-24 00:37:00,37.3,36.3,29.75,NNE,24,9.0,9.0,96,0.00,,,0.20,0,Wunderground v.1.15,2013-02-24 05:37:00,
2013-02-24 00:42:00,37.3,36.3,29.75,North,9,8.0,16.0,96,0.00,,,0.20,0,Wunderground v.1.15,2013-02-24 05:42:00,
2013-02-24 00:52:00,37.3,36.3,29.74,NNW,347,8.0,19.0,96,0.00,,,0.20,0,Wunderground v.1.15,2013-02-24 05:52:00,
2013-02-24 01:02:00,37.3,36.3,29.74,NNW,327,8.0,19.0,96,0.00,,,0.20,0,Wunderground v.1.15,2013-02-24 06:02:00,
2013-02-24 01:12:00,37.3,36.3,29.73,North,351,8.0,19.0,96,0.00,,,0.20,0,Wunderground v.1.15,2013-02-24 06:12:00,
2013-02-24 01:17:00,37.4,36.4,29.73,NW,322,9.0,9.0,96,0.00,,,0.20,0,Wunderground v.1.15,2013-02-24 06:17:00,
2013-02-24 01:27:00,37.5,36.5,29.73,North,360,8.0,16.0,96,0.00,,,0.20,0,Wunderground v.1.15,2013-02-24 06:27:00,
2013-02-24 01:37:00,37.7,36.7,29.73,North,349,7.0,16.0,96,0.00,,,0.20,0,Wunderground v.1.15,2013-02-24 06:37:00,
2013-02-24 01:47:00,37.8,36.8,29.73,North,349,8.0,16.0,96,0.00,,,0.20,0,Wunderground v.1.15,2013-02-24 06:47:00,
2013-02-24 01:57:00,37.7,36.7,29.73,NNW,348,7.0,16.0,96,0.00,,,0.20,0,Wunderground v.1.15,2013-02-24 06:57:00,
2013-02-24 02:02:00,37.6,36.6,29.73,North,360,7.0,16.0,96,0.00,,,0.20,0,Wunderground v.1.15,2013-02-24 07:02:00,
2013-02-24 02:12:00,37.3,36.3,29.73,NW,315,7.0,16.0,96,0.00,,,0.20,0,Wunderground v.1.15,2013-02-24 07:12:00,
2013-02-24 02:22:00,37.2,36.2,29.73,NW,313,7.0,16.0,96,0.00,,,0.00,0,Wunderground v.1.15,2013-02-24 07:22:00,
2013-02-24 02:32:00,37.0,36.0,29.72,NNW,332,8.0,15.0,96,0.00,,,0.00,0,Wunderground v.1.15,2013-02-24 07:32:00,
2013-02-24 02:42:00,36.9,35.9,29.72,NNW,346,7.0,15.0,96,0.00,,,0.01,0,Wunderground v.1.15,2013-02-24 07:42:00,
2013-02-24 02:47:00,36.9,35.9,29.71,NNW,331,8.0,15.0,96,0.00,,,0.01,0,Wunderground v.1.15,2013-02-24 07:47:00,
2013-02-24 02:57:00,36.9,35.9,29.71,NW,322,6.0,14.0,96,0.00,,,0.01,0,Wunderground v.1.15,2013-02-24 07:57:00,
2013-02-24 03:07:00,36.9,35.9,29.71,NNW,345,8.0,14.0,96,0.00,,,0.01,0,Wunderground v.1.15,2013-02-24 08:07:00,
2013-02-24 03:17:00,36.9,35.9,29.70,NW,325,8.0,8.0,96,0.00,,,0.01,0,Wunderground v.1.15,2013-02-24 08:17:00,
2013-02-24 03:27:00,36.9,35.9,29.70,NNW,348,7.0,7.0,96,0.00,,,0.01,0,Wunderground v.1.15,2013-02-24 08:27:00,
2013-02-24 03:37:00,36.9,35.9,29.69,NNE,17,8.0,17.0,96,0.00,,,0.01,0,Wunderground v.1.15,2013-02-24 08:37:00,
2013-02-24 03:47:00,37.0,36.0,29.69,NW,313,8.0,8.0,96,0.00,,,0.01,0,Wunderground v.1.15,2013-02-24 08:47:00,
2013-02-24 03:52:00,37.0,36.0,29.69,NNE,15,8.0,11.0,96,0.00,,,0.01,0,Wunderground v.1.15,2013-02-24 08:52:00,
2013-02-24 04:02:00,37.1,36.1,29.69,North,355,7.0,18.0,96,0.00,,,0.01,0,Wunderground v.1.15,2013-02-24 09:02:00,
2013-02-24 04:12:00,37.2,36.2,29.69,NNW,339,7.0,18.0,96,0.00,,,0.02,0,Wunderground v.1.15,2013-02-24 09:12:00,
2013-02-24 04:22:00,37.2,36.2,29.70,North,350,7.0,18.0,96,0.00,,,0.02,0,Wunderground v.1.15,2013-02-24 09:22:00,
2013-02-24 04:32:00,37.3,36.3,29.71,NNW,333,7.0,16.0,96,0.00,,,0.02,0,Wunderground v.1.15,2013-02-24 09:32:00,
2013-02-24 04:42:00,37.2,36.2,29.72,WNW,298,7.0,11.0,96,0.00,,,0.02,0,Wunderground v.1.15,2013-02-24 09:42:00,
2013-02-24 04:52:00,37.0,36.0,29.72,WNW,290,7.0,16.0,96,0.00,,,0.02,0,Wunderground v.1.15,2013-02-24 09:52:00,
2013-02-24 05:02:00,36.6,35.6,29.73,NW,312,8.0,16.0,96,0.00,,,0.02,0,Wunderground v.1.15,2013-02-24 10:02:00,
2013-02-24 05:07:00,36.3,35.3,29.72,NW,309,8.0,16.0,96,0.00,,,0.02,0,Wunderground v.1.15,2013-02-24 10:07:00,
2013-02-24 05:17:00,36.1,35.1,29.72,WNW,299,8.0,16.0,96,0.00,,,0.02,0,Wunderground v.1.15,2013-02-24 10:17:00,
2013-02-24 05:22:00,36.0,35.0,29.71,NNW,334,8.0,18.0,96,0.00,,,0.02,0,Wunderground v.1.15,2013-02-24 10:22:00,
2013-02-24 05:32:00,35.9,34.9,29.70,WNW,288,8.0,18.0,96,0.00,,,0.02,0,Wunderground v.1.15,2013-02-24 10:32:00,
2013-02-24 05:42:00,35.9,34.9,29.69,NNW,338,9.0,18.0,96,0.00,,,0.02,0,Wunderground v.1.15,2013-02-24 10:42:00,
2013-02-24 05:47:00,35.8,34.8,29.69,North,350,9.0,9.0,96,0.00,,,0.03,0,Wunderground v.1.15,2013-02-24 10:47:00,
2013-02-24 05:57:00,35.8,34.8,29.68,NNW,342,9.0,9.0,96,0.00,,,0.03,0,Wunderground v.1.15,2013-02-24 10:57:00,
2013-02-24 06:07:00,35.8,34.8,29.68,North,355,9.0,9.0,96,0.00,,,0.03,0,Wunderground v.1.15,2013-02-24 11:07:00,
2013-02-24 06:17:00,35.8,34.8,29.68,WNW,299,8.0,17.0,96,0.00,,,0.03,0,Wunderground v.1.15,2013-02-24 11:17:00,
2013-02-24 06:27:00,35.8,34.8,29.68,NNW,339,8.0,16.0,96,0.00,,,0.03,0,Wunderground v.1.15,2013-02-24 11:27:00,
2013-02-24 06:37:00,35.8,34.8,29.69,NW,304,8.0,16.0,96,0.00,,,0.03,5,Wunderground v.1.15,2013-02-24 11:37:00,
2013-02-24 06:47:00,35.9,34.9,29.69,WNW,292,8.0,16.0,96,0.00,,,0.03,11,Wunderground v.1.15,2013-02-24 11:47:00,
2013-02-24 06:57:00,36.0,35.0,29.69,NW,305,7.0,17.0,96,0.00,,,0.03,18,Wunderground v.1.15,2013-02-24 11:57:00,
2013-02-24 07:07:00,36.0,35.0,29.69,WNW,294,7.0,7.0,96,0.00,,,0.03,26,Wunderground v.1.15,2013-02-24 12:07:00,
2013-02-24 07:17:00,36.0,35.0,29.69,WNW,296,7.0,17.0,96,0.00,,,0.03,32,Wunderground v.1.15,2013-02-24 12:17:00,
2013-02-24 07:27:00,36.1,35.1,29.70,WNW,286,6.0,16.0,96,0.00,,,0.03,30,Wunderground v.1.15,2013-02-24 12:27:00,
2013-02-24 07:32:00,36.1,35.1,29.70,WNW,295,6.0,16.0,96,0.00,,,0.03,32,Wunderground v.1.15,2013-02-24 12:32:00,
2013-02-24 07:42:00,36.3,35.3,29.70,WNW,302,6.0,16.0,96,0.00,,,0.03,49,Wunderground v.1.15,2013-02-24 12:42:00,
2013-02-24 07:47:00,36.4,35.4,29.69,North,355,6.0,16.0,96,0.00,,,0.03,60,Wunderground v.1.15,2013-02-24 12:47:00,
2013-02-24 07:57:00,36.5,35.5,29.69,NW,311,7.0,14.0,96,0.00,,,0.03,100,Wunderground v.1.15,2013-02-24 12:57:00,
2013-02-24 08:07:00,36.8,35.8,29.69,WNW,293,7.0,7.0,96,0.00,,,0.03,113,Wunderground v.1.15,2013-02-24 13:07:00,
2013-02-24 08:12:00,36.9,35.9,29.70,NW,313,5.0,14.0,96,0.00,,,0.03,104,Wunderground v.1.15,2013-02-24 13:12:00,
2013-02-24 08:17:00,36.9,35.9,29.69,WNW,288,6.0,14.0,96,0.00,,,0.03,100,Wunderground v.1.15,2013-02-24 13:17:00,
2013-02-24 08:27:00,37.1,36.1,29.70,NNW,341,7.0,13.0,96,0.00,,,0.03,76,Wunderground v.1.15,2013-02-24 13:27:00,
2013-02-24 08:37:00,37.2,36.2,29.69,WNW,286,7.0,7.0,96,0.00,,,0.03,100,Wunderground v.1.15,2013-02-24 13:37:00,
2013-02-24 08:47:00,37.5,36.2,29.69,WNW,295,8.0,8.0,95,0.00,,,0.03,174,Wunderground v.1.15,2013-02-24 13:47:00,
2013-02-24 08:57:00,37.7,36.4,29.68,NNW,337,7.0,17.0,95,0.00,,,0.03,134,Wunderground v.1.15,2013-02-24 13:57:00,
2013-02-24 09:07:00,37.9,36.6,29.68,NNW,327,9.0,9.0,95,0.00,,,0.03,197,Wunderground v.1.15,2013-02-24 14:07:00,
2013-02-24 09:17:00,38.5,37.2,29.68,WNW,291,7.0,17.0,95,0.00,,,0.03,237,Wunderground v.1.15,2013-02-24 14:17:00,
2013-02-24 09:22:00,38.7,37.4,29.69,West,275,7.0,17.0,95,0.00,,,0.03,202,Wunderground v.1.15,2013-02-24 14:22:00,
2013-02-24 09:32:00,39.0,37.4,29.69,NW,309,7.0,17.0,94,0.00,,,0.03,209,Wunderground v.1.15,2013-02-24 14:32:00,
2013-02-24 09:37:00,39.1,37.5,29.70,NW,308,8.0,17.0,94,0.00,,,0.03,316,Wunderground v.1.15,2013-02-24 14:37:00,
2013-02-24 09:47:00,39.1,37.2,29.70,WNW,303,9.0,9.0,93,0.00,,,0.03,174,Wunderground v.1.15,2013-02-24 14:47:00,
2013-02-24 09:57:00,39.3,37.4,29.69,WNW,303,8.0,17.0,93,0.00,,,0.03,332,Wunderground v.1.15,2013-02-24 14:57:00,
2013-02-24 10:07:00,40.2,38.1,29.69,NW,321,8.0,8.0,92,0.00,,,0.03,587,Wunderground v.1.15,2013-02-24 15:07:00,
2013-02-24 10:17:00,41.1,38.4,29.68,NW,311,8.0,17.0,90,0.00,,,0.03,724,Wunderground v.1.15,2013-02-24 15:17:00,
2013-02-24 10:22:00,41.5,38.8,29.68,WNW,295,8.0,19.0,90,0.00,,,0.03,396,Wunderground v.1.15,2013-02-24 15:22:00,
2013-02-24 10:32:00,41.2,37.9,29.69,NNW,332,8.0,19.0,88,0.00,,,0.03,320,Wunderground v.1.15,2013-02-24 15:32:00,
2013-02-24 10:42:00,41.0,37.7,29.69,WNW,294,8.0,19.0,88,0.00,,,0.03,251,Wunderground v.1.15,2013-02-24 15:42:00,
2013-02-24 10:52:00,41.0,37.4,29.70,West,276,6.0,16.0,87,0.00,,,0.03,283,Wunderground v.1.15,2013-02-24 15:52:00,
2013-02-24 11:02:00,40.9,37.3,29.70,West,265,9.0,9.0,87,0.00,,,0.03,297,Wunderground v.1.15,2013-02-24 16:02:00,
2013-02-24 11:07:00,40.7,37.1,29.70,WNW,298,10.0,10.0,87,0.00,,,0.03,299,Wunderground v.1.15,2013-02-24 16:07:00,
2013-02-24 11:17:00,40.9,37.3,29.69,NNW,342,9.0,16.0,87,0.00,,,0.03,304,Wunderground v.1.15,2013-02-24 16:17:00,
2013-02-24 11:22:00,40.9,37.0,29.70,WNW,300,9.0,19.0,86,0.00,,,0.03,338,Wunderground v.1.15,2013-02-24 16:22:00,
2013-02-24 11:32:00,41.1,37.2,29.70,North,355,8.0,19.0,86,0.00,,,0.03,332,Wunderground v.1.15,2013-02-24 16:32:00,
2013-02-24 11:42:00,41.0,37.1,29.70,NW,304,9.0,19.0,86,0.00,,,0.03,281,Wunderground v.1.15,2013-02-24 16:42:00,
2013-02-24 11:47:00,40.8,37.2,29.70,WNW,293,10.0,10.0,87,0.00,,,0.03,297,Wunderground v.1.15,2013-02-24 16:47:00,
2013-02-24 11:57:00,41.0,37.4,29.69,WNW,302,8.0,8.0,87,0.00,,,0.03,283,Wunderground v.1.15,2013-02-24 16:57:00,
2013-02-24 12:07:00,41.2,37.3,29.69,NNW,329,8.0,18.0,86,0.00,,,0.03,260,Wunderground v.1.15,2013-02-24 17:07:00,
2013-02-24 12:17:00,41.6,37.4,29.70,WNW,284,8.0,8.0,85,0.00,,,0.03,237,Wunderground v.1.15,2013-02-24 17:17:00,
2013-02-24 12:22:00,41.4,37.2,29.69,NW,314,9.0,16.0,85,0.00,,,0.03,313,Wunderground v.1.15,2013-02-24 17:22:00,
2013-02-24 12:32:00,41.5,37.3,29.69,West,262,10.0,18.0,85,0.00,,,0.03,346,Wunderground v.1.15,2013-02-24 17:32:00,
2013-02-24 12:42:00,41.8,37.6,29.69,NW,307,10.0,18.0,85,0.00,,,0.03,355,Wunderground v.1.15,2013-02-24 17:42:00,
2013-02-24 12:47:00,41.8,37.6,29.69,WSW,257,9.0,9.0,85,0.00,,,0.03,269,Wunderground v.1.15,2013-02-24 17:47:00,
2013-02-24 12:57:00,42.2,38.0,29.68,NW,306,7.0,21.0,85,0.00,,,0.03,341,Wunderground v.1.15,2013-02-24 17:57:00,
2013-02-24 13:07:00,42.5,37.7,29.68,WSW,252,8.0,21.0,83,0.00,,,0.03,306,Wunderground v.1.15,2013-02-24 18:07:00,
2013-02-24 13:17:00,42.5,37.7,29.68,WNW,297,10.0,21.0,83,0.00,,,0.03,316,Wunderground v.1.15,2013-02-24 18:17:00,
2013-02-24 13:27:00,42.2,37.4,29.68,West,281,10.0,19.0,83,0.00,,,0.03,320,Wunderground v.1.15,2013-02-24 18:27:00,
2013-02-24 13:37:00,42.1,37.9,29.69,West,273,10.0,10.0,85,0.00,,,0.03,439,Wunderground v.1.15,2013-02-24 18:37:00,
2013-02-24 13:47:00,41.9,37.7,29.68,NW,321,8.0,19.0,85,0.00,,,0.03,323,Wunderground v.1.15,2013-02-24 18:47:00,
2013-02-24 13:52:00,41.7,37.8,29.69,WNW,286,8.0,20.0,86,0.00,,,0.03,283,Wunderground v.1.15,2013-02-24 18:52:00,
2013-02-24 14:02:00,42.0,38.1,29.69,WNW,286,7.0,20.0,86,0.00,,,0.03,244,Wunderground v.1.15,2013-02-24 19:02:00,
2013-02-24 14:07:00,42.2,38.0,29.68,West,273,7.0,7.0,85,0.00,,,0.03,301,Wunderground v.1.15,2013-02-24 19:07:00,
2013-02-24 14:17:00,42.0,37.8,29.68,NW,304,8.0,20.0,85,0.00,,,0.03,190,Wunderground v.1.15,2013-02-24 19:17:00,
2013-02-24 14:27:00,41.6,37.7,29.69,WNW,286,9.0,18.0,86,0.00,,,0.03,163,Wunderground v.1.15,2013-02-24 19:27:00,
2013-02-24 14:37:00,41.6,37.7,29.69,WNW,302,8.0,18.0,86,0.00,,,0.03,141,Wunderground v.1.15,2013-02-24 19:37:00,
2013-02-24 14:47:00,41.8,37.9,29.70,WSW,237,8.0,8.0,86,0.00,,,0.03,185,Wunderground v.1.15,2013-02-24 19:47:00,
2013-02-24 14:57:00,42.2,38.0,29.70,WSW,258,8.0,8.0,85,0.00,,,0.03,174,Wunderground v.1.15,2013-02-24 19:57:00,
2013-02-24 15:07:00,42.4,37.9,29.70,WNW,291,8.0,16.0,84,0.00,,,0.03,142,Wunderground v.1.15,2013-02-24 20:07:00,
2013-02-24 15:12:00,42.3,37.8,29.70,NW,325,9.0,16.0,84,0.00,,,0.03,158,Wunderground v.1.15,2013-02-24 20:12:00,
2013-02-24 15:22:00,42.4,37.9,29.70,NNW,327,8.0,17.0,84,0.00,,,0.03,130,Wunderground v.1.15,2013-02-24 20:22:00,
2013-02-24 15:32:00,42.4,37.9,29.71,NW,317,7.0,17.0,84,0.00,,,0.03,98,Wunderground v.1.15,2013-02-24 20:32:00,
2013-02-24 15:42:00,42.5,38.0,29.70,WNW,290,5.0,17.0,84,0.00,,,0.03,144,Wunderground v.1.15,2013-02-24 20:42:00,
2013-02-24 15:52:00,42.4,37.9,29.71,NW,316,7.0,17.0,84,0.00,,,0.03,105,Wunderground v.1.15,2013-02-24 20:52:00,
2013-02-24 16:02:00,42.3,38.1,29.71,WNW,282,6.0,13.0,85,0.00,,,0.03,90,Wunderground v.1.15,2013-02-24 21:02:00,
2013-02-24 16:12:00,42.2,38.0,29.71,NNW,348,6.0,8.0,85,0.00,,,0.03,113,Wunderground v.1.15,2013-02-24 21:12:00,
2013-02-24 16:22:00,42.5,38.3,29.71,NW,325,5.0,13.0,85,0.00,,,0.03,160,Wunderground v.1.15,2013-02-24 21:22:00,
2013-02-24 16:32:00,42.5,38.3,29.71,NNW,339,5.0,8.0,85,0.00,,,0.03,79,Wunderground v.1.15,2013-02-24 21:32:00,
2013-02-24 16:42:00,42.3,38.1,29.72,WNW,289,5.0,5.0,85,0.00,,,0.03,25,Wunderground v.1.15,2013-02-24 21:42:00,
2013-02-24 16:52:00,42.0,37.8,29.73,WNW,285,5.0,12.0,85,0.00,,,0.03,12,Wunderground v.1.15,2013-02-24 21:52:00,
2013-02-24 17:02:00,41.8,37.9,29.74,WNW,284,4.0,6.0,86,0.00,,,0.03,7,Wunderground v.1.15,2013-02-24 22:02:00,
2013-02-24 17:12:00,41.5,37.6,29.74,WNW,288,4.0,12.0,86,0.00,,,0.03,7,Wunderground v.1.15,2013-02-24 22:12:00,
2013-02-24 17:17:00,41.4,37.5,29.75,NW,313,4.0,12.0,86,0.00,,,0.03,9,Wunderground v.1.15,2013-02-24 22:17:00,
2013-02-24 17:27:00,41.0,37.1,29.75,WNW,289,5.0,5.0,86,0.00,,,0.03,5,Wunderground v.1.15,2013-02-24 22:27:00,
2013-02-24 17:32:00,40.9,37.3,29.76,WNW,300,5.0,7.0,87,0.00,,,0.03,0,Wunderground v.1.15,2013-02-24 22:32:00,
2013-02-24 17:42:00,40.6,37.0,29.76,WNW,292,5.0,5.0,87,0.00,,,0.03,0,Wunderground v.1.15,2013-02-24 22:42:00,
2013-02-24 17:52:00,40.4,36.8,29.77,NW,313,4.0,9.0,87,0.00,,,0.03,0,Wunderground v.1.15,2013-02-24 22:52:00,
2013-02-24 18:02:00,40.2,36.6,29.77,NW,307,5.0,9.0,87,0.00,,,0.03,0,Wunderground v.1.15,2013-02-24 23:02:00,
2013-02-24 18:12:00,40.2,36.6,29.78,West,280,5.0,9.0,87,0.00,,,0.03,0,Wunderground v.1.15,2013-02-24 23:12:00,
2013-02-24 18:22:00,40.0,36.2,29.79,WNW,288,8.0,14.0,86,0.00,,,0.03,0,Wunderground v.1.15,2013-02-24 23:22:00,
2013-02-24 18:32:00,39.9,35.5,29.80,West,277,6.0,14.0,84,0.00,,,0.03,0,Wunderground v.1.15,2013-02-24 23:32:00,
2013-02-24 18:42:00,39.6,34.9,29.80,WSW,258,5.0,14.0,83,0.00,,,0.03,0,Wunderground v.1.15,2013-02-24 23:42:00,
2013-02-24 18:52:00,39.2,34.5,29.81,West,277,7.0,16.0,83,0.00,,,0.03,0,Wunderground v.1.15,2013-02-24 23:52:00,
2013-02-24 18:57:00,39.0,34.3,29.81,WSW,257,6.0,6.0,83,0.00,,,0.03,0,Wunderground v.1.15,2013-02-24 23:57:00,
2013-02-24 19:07:00,38.9,34.2,29.81,WNW,293,6.0,6.0,83,0.00,,,0.03,0,Wunderground v.1.15,2013-02-25 00:07:00,
2013-02-24 19:12:00,38.9,34.2,29.82,West,267,5.0,16.0,83,0.00,,,0.03,0,Wunderground v.1.15,2013-02-25 00:12:00,
2013-02-24 19:22:00,38.8,34.1,29.82,WNW,293,5.0,12.0,83,0.00,,,0.03,0,Wunderground v.1.15,2013-02-25 00:22:00,
2013-02-24 19:32:00,38.7,34.0,29.83,WNW,292,5.0,12.0,83,0.00,,,0.03,0,Wunderground v.1.15,2013-02-25 00:32:00,
2013-02-24 19:37:00,38.6,33.9,29.83,West,263,5.0,5.0,83,0.00,,,0.03,0,Wunderground v.1.15,2013-02-25 00:37:00,
2013-02-24 19:47:00,38.5,34.1,29.84,WNW,288,6.0,12.0,84,0.00,,,0.03,0,Wunderground v.1.15,2013-02-25 00:47:00,
2013-02-24 19:57:00,38.2,33.8,29.84,WNW,285,7.0,12.0,84,0.00,,,0.03,0,Wunderground v.1.15,2013-02-25 00:57:00,
2013-02-24 20:07:00,37.8,32.8,29.84,West,281,8.0,12.0,82,0.00,,,0.03,0,Wunderground v.1.15,2013-02-25 01:07:00,
2013-02-24 20:12:00,37.8,32.2,29.85,NW,305,8.0,12.0,80,0.00,,,0.03,0,Wunderground v.1.15,2013-02-25 01:12:00,
2013-02-24 20:22:00,37.5,31.6,29.86,WNW,294,8.0,17.0,79,0.00,,,0.03,0,Wunderground v.1.15,2013-02-25 01:22:00,
2013-02-24 20:32:00,37.0,31.1,29.86,West,273,7.0,17.0,79,0.00,,,0.03,0,Wunderground v.1.15,2013-02-25 01:32:00,
2013-02-24 20:37:00,36.7,30.8,29.86,WNW,284,8.0,8.0,79,0.00,,,0.03,0,Wunderground v.1.15,2013-02-25 01:37:00,
2013-02-24 20:47:00,36.1,30.8,29.87,WSW,252,10.0,17.0,81,0.00,,,0.03,0,Wunderground v.1.15,2013-02-25 01:47:00,
2013-02-24 20:57:00,35.4,31.0,29.87,West,274,9.0,9.0,84,0.00,,,0.03,0,Wunderground v.1.15,2013-02-25 01:57:00,
2013-02-24 21:07:00,35.0,31.2,29.87,WNW,286,7.0,19.0,86,0.00,,,0.03,0,Wunderground v.1.15,2013-02-25 02:07:00,
2013-02-24 21:17:00,34.6,31.1,29.87,WNW,284,7.0,19.0,87,0.00,,,0.03,0,Wunderground v.1.15,2013-02-25 02:17:00,
2013-02-24 21:27:00,34.3,31.1,29.88,WNW,289,8.0,8.0,88,0.00,,,0.03,0,Wunderground v.1.15,2013-02-25 02:27:00,
2013-02-24 21:37:00,34.3,30.8,29.88,WNW,302,8.0,17.0,87,0.00,,,0.03,0,Wunderground v.1.15,2013-02-25 02:37:00,
2013-02-24 21:47:00,34.3,30.8,29.89,WNW,299,8.0,17.0,87,0.00,,,0.03,0,Wunderground v.1.15,2013-02-25 02:47:00,
2013-02-24 21:57:00,34.3,30.5,29.88,WNW,288,8.0,8.0,86,0.00,,,0.03,0,Wunderground v.1.15,2013-02-25 02:57:00,
2013-02-24 22:07:00,34.3,30.5,29.88,WNW,296,7.0,15.0,86,0.00,,,0.03,0,Wunderground v.1.15,2013-02-25 03:07:00,
2013-02-24 22:17:00,34.3,30.3,29.88,NW,319,8.0,15.0,85,0.00,,,0.03,0,Wunderground v.1.15,2013-02-25 03:17:00,
2013-02-24 22:22:00,34.2,30.2,29.88,WNW,284,8.0,15.0,85,0.00,,,0.03,0,Wunderground v.1.15,2013-02-25 03:22:00,
2013-02-24 22:32:00,34.2,29.9,29.88,NW,323,8.0,15.0,84,0.00,,,0.03,0,Wunderground v.1.15,2013-02-25 03:32:00,
2013-02-24 22:42:00,34.1,29.8,29.88,WNW,285,9.0,10.0,84,0.00,,,0.03,0,Wunderground v.1.15,2013-02-25 03:42:00,
2013-02-24 22:52:00,34.0,29.7,29.89,West,270,9.0,19.0,84,0.00,,,0.03,0,Wunderground v.1.15,2013-02-25 03:52:00,
2013-02-24 23:02:00,33.8,29.5,29.89,WNW,296,8.0,19.0,84,0.00,,,0.03,0,Wunderground v.1.15,2013-02-25 04:02:00,
2013-02-24 23:12:00,33.7,29.7,29.89,NW,306,7.0,10.0,85,0.00,,,0.03,0,Wunderground v.1.15,2013-02-25 04:12:00,
2013-02-24 23:22:00,33.5,29.5,29.89,WNW,297,7.0,16.0,85,0.00,,,0.03,0,Wunderground v.1.15,2013-02-25 04:22:00,
2013-02-24 23:27:00,33.5,29.8,29.90,West,278,6.0,16.0,86,0.00,,,0.03,0,Wunderground v.1.15,2013-02-25 04:27:00,
2013-02-24 23:37:00,33.6,29.9,29.90,WNW,299,7.0,16.0,86,0.00,,,0.03,0,Wunderground v.1.15,2013-02-25 04:37:00,
2013-02-24 23:42:00,33.6,29.9,29.90,West,259,6.0,16.0,86,0.00,,,0.03,0,Wunderground v.1.15,2013-02-25 04:42:00,
2013-02-24 23:52:00,33.7,29.7,29.90,NW,323,7.0,16.0,85,0.00,,,0.03,0,Wunderground v.1.15,2013-02-25 04:52:00,